LIBP

Abruzzo Airport

Airport
ICAO code
LIBP
IATA Code
PSR
Summary
ICAO Region
EUR
ICAO Territory
Location

Pescara, Abruzzo

Serving
Pescara
Elevation
48 ft
Coordinates
42° 25' 56" N , 14° 11' 10" E
KCC
Metar
LIBP 211320Z 08010KT 040V100 CAVOK 32/21 Q1009

Abruzzo Airport (IATA: PSR, ICAO: LIBP) is an international airport serving Pescara, Italy.

Climatology

Humid subtropical climate (Köppen climate classification Cfa)

Runways

Designator Length Width Surface Rops
4/22 2418 45 ASP Yes/Yes

Airport map

Aerial View

SKYbrary Partners:

Safety knowledge contributed by: